Time;durP1;ratioP1;P1;durP2;ratioP2;P2;SDS_P1;SDS_P2;PMS_P1;PMS_P2;Temp;Humidity;BMP_temperature;BMP_pressure;BME280_temperature;BME280_humidity;BME280_pressure;Samples;Min_cycle;Max_cycle;Signal;HPM_P1;HPM_P2
2021/09/30 00:01:57;;;;;;;;;17.00;17.00;;;;;9.39;65.67;102729.56;5099198;28;11544;-73
2021/09/30 00:04:53;;;;;;;;;20.25;20.25;;;;;9.36;65.39;102734.81;5112431;28;12270;-73
2021/09/30 00:07:49;;;;;;;;;16.25;16.25;;;;;9.30;65.76;102738.69;5105395;28;11441;-73
2021/09/30 00:10:54;;;;;;;;;15.50;15.50;;;;;9.40;65.41;102731.22;5111579;28;11371;-73
2021/09/30 00:33:06;;;;;;;;;15.00;13.25;;;;;9.21;65.69;102738.38;5077722;28;11550;-72
2021/09/30 00:42:36;;;;;;;;;17.00;17.00;;;;;9.24;65.89;102740.59;5112160;28;11432;-72
2021/09/30 00:49:03;;;;;;;;;17.00;17.00;;;;;8.89;67.31;102742.13;5091617;28;11456;-72
2021/09/30 02:23:22;;;;;;;;;14.25;14.25;;;;;8.59;66.83;102736.47;5087260;28;11571;-73
2021/09/30 02:26:34;;;;;;;;;13.00;13.00;;;;;8.60;66.55;102738.13;5093928;28;11547;-73
2021/09/30 02:58:49;;;;;;;;;25.25;25.25;;;;;8.36;66.40;102754.25;5113882;28;11485;-73
2021/09/30 03:01:47;;;;;;;;;25.25;25.25;;;;;8.31;66.74;102755.00;5100146;28;11494;-74
2021/09/30 03:04:44;;;;;;;;;39.50;38.25;;;;;8.25;66.61;102752.47;5113220;28;11486;-73
2021/09/30 03:07:41;;;;;;;;;30.00;30.00;;;;;8.13;66.91;102754.59;5099385;28;11508;-73
2021/09/30 03:10:38;;;;;;;;;32.75;27.75;;;;;8.05;67.38;102765.03;5099504;28;11707;-73
2021/09/30 03:13:37;;;;;;;;;32.00;29.75;;;;;8.01;67.51;102758.38;5112299;28;11582;-73
2021/09/30 03:16:46;;;;;;;;;43.75;40.00;;;;;8.01;67.07;102761.13;5112772;28;11455;-72
2021/09/30 03:20:49;;;;;;;;;38.75;35.75;;;;;7.92;67.81;102768.22;5112728;28;11525;-73
2021/09/30 03:23:12;;;;;;;;;38.50;33.25;;;;;7.91;67.13;102769.31;5111870;28;11491;-73
2021/09/30 03:26:08;;;;;;;;;33.75;33.25;;;;;7.88;67.45;102771.75;5112898;28;11486;-73
2021/09/30 03:29:06;;;;;;;;;32.75;30.00;;;;;7.80;67.91;102770.31;5099570;28;11531;-74
2021/09/30 03:32:04;;;;;;;;;31.25;27.25;;;;;7.84;67.50;102774.22;5099246;28;11483;-72
2021/09/30 03:35:00;;;;;;;;;31.25;31.25;;;;;7.95;67.38;102778.72;5099008;28;11447;-73
2021/09/30 03:37:55;;;;;;;;;35.50;31.75;;;;;7.88;67.31;102775.34;5112901;28;11470;-73
2021/09/30 03:40:51;;;;;;;;;34.75;34.75;;;;;7.95;66.93;102773.19;5099482;28;11475;-73
2021/09/30 03:43:46;;;;;;;;;29.00;29.00;;;;;7.95;67.33;102770.44;5099078;28;11447;-73
2021/09/30 03:46:45;;;;;;;;;43.25;39.00;;;;;7.88;67.49;102775.34;5112165;28;11484;-73
2021/09/30 03:49:43;;;;;;;;;47.50;41.25;;;;;8.00;66.72;102776.00;5112672;28;11474;-73
2021/09/30 03:52:48;;;;;;;;;55.50;48.25;;;;;7.82;66.89;102776.41;5112613;28;11494;-73
2021/09/30 04:02:01;;;;;;;;;46.00;41.75;;;;;7.77;67.33;102777.19;5112446;28;10954;-72
2021/09/30 04:04:57;;;;;;;;;55.50;45.75;;;;;7.89;66.81;102779.75;5097955;28;11458;-73
2021/09/30 04:07:52;;;;;;;;;46.00;41.75;;;;;7.90;67.06;102775.06;5094730;28;11525;-73
2021/09/30 04:10:48;;;;;;;;;60.00;49.50;;;;;8.04;66.85;102784.56;5092448;28;11539;-73
2021/09/30 04:13:44;;;;;;;;;61.75;52.00;;;;;7.89;66.87;102789.94;5111776;28;11472;-73
2021/09/30 04:16:44;;;;;;;;;59.75;51.00;;;;;7.90;66.52;102788.84;5109671;28;11480;-72
2021/09/30 04:19:40;;;;;;;;;67.50;54.25;;;;;7.78;66.24;102786.28;5093834;28;11507;-74
2021/09/30 04:22:36;;;;;;;;;55.50;47.50;;;;;7.68;67.03;102791.69;5098644;28;11519;-74
2021/09/30 04:25:31;;;;;;;;;63.25;54.00;;;;;7.78;66.89;102800.88;5111630;28;11620;-73
2021/09/30 04:28:27;;;;;;;;;60.25;49.50;;;;;7.83;66.84;102800.13;5111682;28;11636;-73
2021/09/30 04:31:23;;;;;;;;;60.50;49.00;;;;;7.86;66.62;102791.31;5099077;28;11633;-73
2021/09/30 04:34:19;;;;;;;;;61.25;51.00;;;;;7.77;66.58;102795.63;5111290;28;11585;-73
2021/09/30 04:37:16;;;;;;;;;66.50;54.50;;;;;7.85;66.43;102803.44;5090570;28;11523;-73
2021/09/30 04:40:12;;;;;;;;;35.25;35.25;;;;;7.96;66.72;102801.59;5078738;28;11523;-73
2021/09/30 04:43:08;;;;;;;;;60.25;50.00;;;;;7.84;66.14;102810.03;5091679;28;11513;-73
2021/09/30 04:46:03;;;;;;;;;54.75;47.00;;;;;8.03;66.25;102811.28;5091667;28;11509;-71
2021/09/30 04:48:59;;;;;;;;;61.50;48.50;;;;;8.16;65.81;102807.28;5091903;28;11526;-71
2021/09/30 04:51:54;;;;;;;;;45.25;41.25;;;;;8.16;65.70;102811.97;5091847;28;12325;-71
2021/09/30 04:54:50;;;;;;;;;49.00;41.75;;;;;8.23;65.23;102810.66;5091777;28;11537;-71
2021/09/30 04:57:45;;;;;;;;;45.00;40.50;;;;;8.46;65.31;102812.22;5081403;28;11519;-72
2021/09/30 05:00:41;;;;;;;;;39.75;38.75;;;;;8.53;64.72;102825.81;5095105;28;11694;-72
2021/09/30 05:03:37;;;;;;;;;35.25;34.25;;;;;8.60;64.54;102824.47;5096510;28;11540;-71
2021/09/30 05:06:32;;;;;;;;;44.75;40.75;;;;;8.64;64.47;102824.75;5114742;28;11495;-71
2021/09/30 05:09:31;;;;;;;;;41.00;38.25;;;;;8.55;63.80;102829.94;5101786;28;11545;-71
2021/09/30 05:12:26;;;;;;;;;50.75;45.00;;;;;8.90;63.94;102836.78;5096876;28;11520;-71
2021/09/30 05:15:22;;;;;;;;;48.00;40.75;;;;;9.03;63.51;102833.53;5115480;28;11604;-72
2021/09/30 05:18:18;;;;;;;;;48.50;41.00;;;;;9.12;63.60;102831.94;5114924;28;11485;-71
2021/09/30 05:21:14;;;;;;;;;40.25;37.25;;;;;9.25;63.09;102840.81;5114954;28;11001;-71
2021/09/30 05:24:10;;;;;;;;;25.75;25.25;;;;;9.19;62.27;102843.53;5111283;28;11603;-72
2021/09/30 05:27:06;;;;;;;;;29.50;29.50;;;;;9.31;62.11;102839.75;5120230;27;11444;-71
2021/09/30 05:30:02;;;;;;;;;33.50;33.00;;;;;9.53;62.04;102848.66;5115509;28;11503;-71
2021/09/30 05:32:58;;;;;;;;;63.75;52.25;;;;;9.62;62.56;102847.03;5101540;28;12308;-71
2021/09/30 05:35:54;;;;;;;;;52.25;40.75;;;;;9.77;62.19;102850.94;5115280;28;11592;-68
2021/09/30 05:38:49;;;;;;;;;57.25;46.75;;;;;9.92;61.05;102842.69;5115294;28;11579;-70
2021/09/30 05:41:48;;;;;;;;;54.25;44.50;;;;;10.09;60.77;102848.78;5115194;28;11511;-70
2021/09/30 05:44:43;;;;;;;;;35.75;33.25;;;;;9.98;60.05;102845.19;5114673;28;11508;-71
2021/09/30 05:47:40;;;;;;;;;41.00;38.50;;;;;10.21;59.82;102841.03;5101669;28;11457;-70
2021/09/30 05:50:36;;;;;;;;;29.50;28.25;;;;;10.37;59.26;102846.59;5114968;28;11726;-70
2021/09/30 05:53:32;;;;;;;;;34.50;32.25;;;;;10.47;59.20;102844.66;5114708;28;11397;-72
2021/09/30 05:56:28;;;;;;;;;34.50;32.25;;;;;10.51;58.91;102842.19;5114871;28;11431;-72
2021/09/30 05:59:24;;;;;;;;;33.00;32.00;;;;;10.72;58.28;102843.78;5114655;28;11480;-72
2021/09/30 06:15:22;;;;;;;;;31.00;29.50;;;;;11.81;55.75;102852.25;5072928;28;11530;-72
2021/09/30 06:18:18;;;;;;;;;31.00;28.25;;;;;11.98;54.25;102859.38;5113519;28;11455;-72
2021/09/30 06:21:13;;;;;;;;;29.25;28.25;;;;;12.12;52.97;102854.81;5113613;28;11420;-72
2021/09/30 06:24:09;;;;;;;;;33.50;31.25;;;;;12.23;53.28;102860.00;5113934;28;11382;-72
2021/09/30 06:27:05;;;;;;;;;32.50;32.00;;;;;12.40;52.06;102870.66;5114013;28;11428;-73
2021/09/30 06:30:00;;;;;;;;;37.50;34.50;;;;;12.56;51.76;102863.03;5113327;28;11380;-72
2021/09/30 06:32:57;;;;;;;;;30.50;28.75;;;;;12.63;51.44;102860.75;5113544;28;12018;-73
2021/09/30 06:35:52;;;;;;;;;28.25;28.25;;;;;12.78;51.28;102860.59;5100456;28;11048;-73
2021/09/30 06:38:48;;;;;;;;;27.00;27.00;;;;;12.92;50.37;102859.91;5113828;28;10781;-72
2021/09/30 06:41:43;;;;;;;;;28.50;28.25;;;;;13.27;49.64;102859.56;5106096;28;11001;-72
2021/09/30 06:44:39;;;;;;;;;21.75;19.75;;;;;15.28;81.75;102849.28;5113750;28;10882;-71
2021/09/30 06:47:37;;;;;;;;;24.25;24.25;;;;;16.08;64.50;102846.94;5112170;28;10368;-70
2021/09/30 06:50:33;;;;;;;;;21.25;20.75;;;;;16.35;52.42;102858.00;5101685;27;10272;-71
2021/09/30 06:53:29;;;;;;;;;22.50;22.00;;;;;17.16;65.19;102848.59;5131122;27;10600;-71
2021/09/30 06:56:26;;;;;;;;;29.00;24.50;;;;;17.23;58.08;102858.16;5093725;28;10166;-72
2021/09/30 06:59:23;;;;;;;;;41.50;35.50;;;;;16.00;42.76;102854.13;5093264;28;9535;-73
2021/09/30 07:02:22;;;;;;;;;27.75;24.75;;;;;15.32;42.59;102857.84;5091845;28;10510;-74
2021/09/30 07:05:19;;;;;;;;;20.50;20.00;;;;;14.40;43.07;102859.53;5092988;28;9528;-74
2021/09/30 07:08:15;;;;;;;;;16.00;16.00;;;;;14.73;43.60;102860.41;5094982;28;9522;-74
2021/09/30 07:11:10;;;;;;;;;12.00;12.00;;;;;14.58;43.54;102863.47;5101754;28;9582;-74
2021/09/30 07:14:06;;;;;;;;;17.25;16.50;;;;;14.28;42.95;102859.22;5092669;28;9456;-73
2021/09/30 07:17:02;;;;;;;;;12.50;12.50;;;;;14.00;43.03;102863.81;5095924;28;9680;-74
2021/09/30 07:19:58;;;;;;;;;13.75;13.50;;;;;14.20;42.76;102868.25;5099754;28;9679;-74
2021/09/30 07:22:53;;;;;;;;;8.00;8.00;;;;;14.48;41.22;102866.41;5092894;28;9712;-73
2021/09/30 07:25:49;;;;;;;;;12.25;12.25;;;;;14.63;41.89;102862.53;5104061;28;9583;-73
2021/09/30 07:28:46;;;;;;;;;8.00;8.00;;;;;14.73;41.41;102857.63;5104856;28;10406;-73
2021/09/30 07:31:42;;;;;;;;;12.00;10.25;;;;;14.70;40.69;102861.00;5111403;28;9589;-73
2021/09/30 07:34:39;;;;;;;;;10.50;10.50;;;;;14.55;40.31;102858.47;5094305;28;9494;-73
2021/09/30 07:37:35;;;;;;;;;12.75;12.75;;;;;15.07;41.03;102855.56;5112803;28;9690;-72
2021/09/30 07:40:32;;;;;;;;;16.75;16.25;;;;;14.98;40.09;102861.03;5098048;28;9600;-73
2021/09/30 07:43:27;;;;;;;;;17.25;17.25;;;;;14.84;40.61;102857.41;5104585;28;9607;-73
2021/09/30 07:46:23;;;;;;;;;15.25;13.75;;;;;15.13;39.84;102854.34;5109314;28;9745;-73
2021/09/30 07:49:19;;;;;;;;;15.50;14.75;;;;;14.76;38.94;102855.34;5103943;28;9675;-74
2021/09/30 07:52:32;;;;;;;;;9.00;9.00;;;;;14.92;39.40;102851.94;5098470;28;9626;-74
2021/09/30 07:55:27;;;;;;;;;31.00;26.50;;;;;15.27;39.22;102844.03;5092392;28;9471;-74
2021/09/30 07:58:24;;;;;;;;;17.00;17.00;;;;;15.06;39.54;102848.34;5102553;28;10135;-74
2021/09/30 08:01:22;;;;;;;;;14.25;13.25;;;;;15.05;38.73;102847.53;5092331;28;9682;-74
2021/09/30 08:04:17;;;;;;;;;12.33;11.33;;;;;15.48;37.99;102830.44;5107261;28;9521;-73
2021/09/30 08:07:13;;;;;;;;;10.67;10.00;;;;;15.38;38.13;102839.88;5112529;28;9390;-74
2021/09/30 08:10:09;;;;;;;;;12.75;12.00;;;;;15.09;37.68;102826.25;5104388;28;9296;-73
2021/09/30 08:13:05;;;;;;;;;10.75;10.00;;;;;15.41;37.83;102835.63;5110819;28;9515;-74
2021/09/30 08:16:02;;;;;;;;;7.00;7.00;;;;;16.01;37.13;102829.81;5112484;28;9524;-74
2021/09/30 08:18:58;;;;;;;;;6.00;6.00;;;;;16.52;36.46;102828.53;5109181;28;10209;-74
2021/09/30 08:21:54;;;;;;;;;7.67;7.67;;;;;15.90;36.80;102834.00;5105346;28;9058;-74
2021/09/30 08:24:49;;;;;;;;;11.33;11.33;;;;;16.33;36.64;102837.09;5085230;28;9372;-73
2021/09/30 08:27:45;;;;;;;;;7.00;7.00;;;;;16.29;36.47;102827.72;5111132;28;9180;-73
2021/09/30 08:30:41;;;;;;;;;5.33;5.33;;;;;16.59;35.66;102837.28;5111934;28;9011;-72
2021/09/30 08:33:24;;;;;;;;;7.00;7.00;;;;;16.66;36.10;102824.50;5102145;28;9120;-72
2021/09/30 08:35:52;;;;;;;;;6.50;6.50;;;;;16.57;36.15;102825.63;5117285;28;8813;-73
2021/09/30 08:38:19;;;;;;;;;9.33;8.00;;;;;16.57;36.51;102820.03;5117459;28;8841;-72
2021/09/30 08:40:47;;;;;;;;;10.67;9.00;;;;;16.61;36.23;102813.47;5112034;28;9015;-72
2021/09/30 08:43:15;;;;;;;;;6.50;6.50;;;;;16.59;35.79;102826.94;5116924;28;8919;-72
2021/09/30 08:45:56;;;;;;;;;8.50;8.50;;;;;16.70;34.70;102827.50;5105919;28;9601;-73
2021/09/30 08:48:52;;;;;;;;;10.33;10.33;;;;;16.18;35.22;102816.00;5096092;28;8816;-73
2021/09/30 08:51:42;;;;;;;;;15.67;13.33;;;;;16.25;35.60;102816.38;5096552;28;9077;-73
2021/09/30 08:54:23;;;;;;;;;7.75;7.75;;;;;16.49;35.63;102812.44;5107557;28;9012;-73
2021/09/30 08:56:51;;;;;;;;;9.33;7.00;;;;;16.68;35.54;102813.00;5092239;28;8985;-72
2021/09/30 08:59:28;;;;;;;;;7.00;7.00;;;;;17.26;34.36;102797.97;5095561;28;8931;-72
2021/09/30 09:02:17;;;;;;;;;6.75;6.75;;;;;17.40;34.13;102807.03;5096834;28;8985;-73
2021/09/30 09:05:14;;;;;;;;;4.25;4.25;;;;;17.60;33.16;102802.78;5103447;28;8853;-72
2021/09/30 09:08:04;;;;;;;;;5.00;5.00;;;;;17.63;32.15;102801.28;5108431;28;8852;-73
2021/09/30 09:11:06;;;;;;;;;5.00;5.00;;;;;18.29;31.91;102807.56;5116081;28;9549;-72
2021/09/30 09:14:01;;;;;;;;;5.25;5.00;;;;;18.36;31.64;102802.28;5115413;28;8856;-73
2021/09/30 09:17:02;;;;;;;;;10.75;10.75;;;;;18.17;31.84;102801.78;5115172;28;9546;-74
2021/09/30 09:19:42;;;;;;;;;10.00;10.00;;;;;18.29;32.26;102788.75;5098050;28;8878;-73
2021/09/30 09:22:12;;;;;;;;;9.00;8.25;;;;;17.69;31.51;102797.19;5116537;28;8847;-74
2021/09/30 09:24:59;;;;;;;;;11.00;10.75;;;;;18.08;31.95;102779.41;5116200;28;8856;-73
2021/09/30 09:27:45;;;;;;;;;7.00;6.00;;;;;18.30;32.01;102792.38;5116446;28;8925;-74
2021/09/30 09:30:47;;;;;;;;;4.75;4.75;;;;;18.51;31.55;102787.72;5116332;28;8856;-74
2021/09/30 09:33:25;;;;;;;;;6.00;6.00;;;;;18.43;31.30;102791.38;5116322;28;8856;-74
2021/09/30 09:36:06;;;;;;;;;6.75;6.75;;;;;18.79;30.02;102795.75;5082118;28;8989;-73
2021/09/30 09:38:48;;;;;;;;;10.00;10.00;;;;;18.53;30.30;102796.59;5116135;28;8827;-74
2021/09/30 09:41:35;;;;;;;;;6.50;6.50;;;;;18.74;30.85;102787.50;5098394;28;9576;-74
2021/09/30 09:44:06;;;;;;;;;10.00;9.00;;;;;18.60;31.05;102794.13;5113892;28;8863;-73
2021/09/30 09:46:39;;;;;;;;;9.50;9.00;;;;;18.46;31.71;102785.09;5116078;28;8815;-74
2021/09/30 09:49:14;;;;;;;;;4.25;4.25;;;;;18.87;31.34;102773.28;5116206;28;8835;-74
2021/09/30 09:51:47;;;;;;;;;3.25;3.25;;;;;19.32;30.06;102771.84;5116265;28;8845;-74
2021/09/30 09:54:18;;;;;;;;;5.00;5.00;;;;;19.34;30.21;102770.34;5115997;28;8826;-73
2021/09/30 09:56:48;;;;;;;;;16.50;15.50;;;;;19.37;29.49;102777.25;5098282;28;9616;-74
2021/09/30 09:59:32;;;;;;;;;5.75;5.75;;;;;19.82;29.16;102771.00;5115931;28;8921;-74
2021/09/30 10:02:00;;;;;;;;;18.50;18.50;;;;;19.28;29.92;102765.28;5115981;28;8831;-79
2021/09/30 10:04:28;;;;;;;;;12.00;12.00;;;;;19.43;30.61;102773.09;5092976;28;8840;-77
2021/09/30 10:07:06;;;;;;;;;9.25;8.50;;;;;18.74;30.32;102770.69;5115169;27;8845;-76
2021/09/30 10:10:02;;;;;;;;;7.25;7.25;;;;;18.93;30.39;102776.69;5101414;28;8869;-78
2021/09/30 10:12:58;;;;;;;;;9.50;9.50;;;;;18.87;31.32;102762.06;5113558;28;8839;-77
2021/09/30 10:15:55;;;;;;;;;9.50;9.50;;;;;18.85;31.54;102758.75;5099643;28;8855;-77
2021/09/30 10:19:00;;;;;;;;;10.25;10.25;;;;;18.54;31.56;102750.59;5114769;28;8825;-79
2021/09/30 10:21:55;;;;;;;;;9.00;9.00;;;;;19.43;30.43;102750.63;5113925;28;8830;-77
2021/09/30 10:24:53;;;;;;;;;17.75;13.75;;;;;19.80;29.36;102753.69;5098745;28;8907;-78
2021/09/30 10:27:57;;;;;;;;;15.75;15.75;;;;;19.30;29.29;102752.53;5114408;28;8810;-76
2021/09/30 10:30:54;;;;;;;;;9.50;9.50;;;;;19.43;30.60;102750.63;5100458;28;8917;-78
2021/09/30 10:33:52;;;;;;;;;8.25;8.25;;;;;19.35;29.13;102745.91;5099749;28;9678;-78
2021/09/30 10:36:30;;;;;;;;;12.25;12.25;;;;;20.01;28.70;102746.00;5095242;28;8846;-80
2021/09/30 10:39:30;;;;;;;;;13.75;13.00;;;;;20.55;29.20;102745.94;5104233;28;8970;-79
2021/09/30 10:42:53;;;;;;;;;10.25;9.00;;;;;19.93;29.94;102736.50;5094367;28;8860;-79
2021/09/30 10:45:48;;;;;;;;;12.50;12.50;;;;;19.95;29.41;102739.00;5114724;28;8919;-78
2021/09/30 10:48:28;;;;;;;;;13.75;13.75;;;;;20.06;29.98;102747.78;5114566;28;8831;-79
2021/09/30 10:51:25;;;;;;;;;8.00;8.00;;;;;19.82;29.74;102743.72;5114031;28;8895;-78
2021/09/30 10:54:22;;;;;;;;;11.25;11.25;;;;;20.54;28.92;102735.84;5099813;28;8834;-79
2021/09/30 10:57:33;;;;;;;;;11.50;11.25;;;;;20.34;29.69;102739.56;5100252;28;8839;-78
2021/09/30 11:00:33;;;;;;;;;6.50;6.50;;;;;20.16;29.29;102733.28;5108701;28;9578;-79
2021/09/30 11:03:29;;;;;;;;;8.50;8.50;;;;;20.38;29.47;102730.06;5111772;28;8854;-79
2021/09/30 11:06:25;;;;;;;;;7.75;7.75;;;;;20.80;28.23;102732.72;5112138;28;8830;-78
2021/09/30 11:09:21;;;;;;;;;7.00;7.00;;;;;20.36;28.36;102726.78;5112184;28;9656;-78
2021/09/30 11:12:17;;;;;;;;;8.25;8.25;;;;;20.12;27.96;102718.31;5112622;28;8826;-79
2021/09/30 11:15:12;;;;;;;;;9.75;8.75;;;;;20.32;28.32;102725.88;5097088;28;8837;-78
2021/09/30 11:18:51;;;;;;;;;17.25;16.50;;;;;20.64;29.19;102718.53;5093082;28;9573;-78
2021/09/30 11:21:47;;;;;;;;;9.00;9.00;;;;;20.38;28.46;102718.00;4996095;28;8873;-78
2021/09/30 11:24:54;;;;;;;;;10.25;10.25;;;;;21.11;27.25;102715.22;5092734;28;8946;-79
2021/09/30 11:28:12;;;;;;;;;12.00;12.00;;;;;20.88;27.28;102722.53;5104949;28;8972;-79
2021/09/30 11:31:27;;;;;;;;;15.25;13.25;;;;;21.45;26.60;102705.41;5112664;28;8818;-78
2021/09/30 11:34:25;;;;;;;;;17.25;14.25;;;;;21.52;27.43;102713.25;5112008;28;8959;-76
2021/09/30 11:37:25;;;;;;;;;9.00;9.00;;;;;20.91;27.45;102707.75;5112639;28;9725;-78
2021/09/30 11:40:21;;;;;;;;;7.50;7.00;;;;;20.70;26.98;102719.97;5112854;28;8892;-77
2021/09/30 11:43:17;;;;;;;;;8.00;8.00;;;;;21.47;27.25;102719.13;5098982;28;8834;-79
2021/09/30 11:46:36;;;;;;;;;6.00;6.00;;;;;21.40;27.04;102697.25;5113114;28;9554;-78
2021/09/30 11:49:42;;;;;;;;;12.50;12.50;;;;;21.96;25.77;102699.22;5099193;28;8980;-79
2021/09/30 11:52:37;;;;;;;;;9.75;9.75;;;;;21.91;25.31;102709.56;5102069;28;8904;-78
2021/09/30 11:55:40;;;;;;;;;8.75;8.75;;;;;21.82;25.52;102692.00;5092515;28;8832;-79
2021/09/30 11:58:36;;;;;;;;;4.75;4.75;;;;;21.30;25.26;102701.34;5096233;28;9558;-78
2021/09/30 12:01:38;;;;;;;;;6.75;6.75;;;;;20.91;26.67;102688.88;5099825;28;9575;-79
2021/09/30 12:04:46;;;;;;;;;5.25;5.25;;;;;21.43;26.11;102685.25;5112290;28;8923;-80
2021/09/30 12:07:42;;;;;;;;;13.75;12.75;;;;;21.24;25.63;102677.44;5077904;28;8970;-79
2021/09/30 12:10:39;;;;;;;;;13.50;12.25;;;;;20.87;26.07;102682.34;5097429;28;8847;-78
2021/09/30 12:13:34;;;;;;;;;21.00;19.50;;;;;21.47;25.66;102679.72;5110343;28;8860;-76
2021/09/30 12:16:30;;;;;;;;;8.50;8.50;;;;;20.97;26.10;102681.00;5104801;28;8838;-79
2021/09/30 12:19:47;;;;;;;;;13.00;13.00;;;;;21.69;26.39;102679.16;5097101;28;8818;-79
2021/09/30 12:22:55;;;;;;;;;6.25;6.25;;;;;21.51;24.86;102675.03;5111664;28;8834;-79
2021/09/30 12:25:52;;;;;;;;;7.00;7.00;;;;;21.48;25.25;102670.13;5098737;28;8893;-78
2021/09/30 12:28:47;;;;;;;;;8.75;8.75;;;;;21.86;25.46;102675.22;5111895;28;8935;-78
2021/09/30 12:31:44;;;;;;;;;6.50;6.50;;;;;21.98;24.72;102671.50;5099120;28;8826;-78
2021/09/30 12:34:40;;;;;;;;;7.75;7.75;;;;;21.73;25.20;102676.47;5098626;28;8858;-78
2021/09/30 12:37:46;;;;;;;;;13.75;11.75;;;;;21.90;25.01;102664.84;5112480;28;8887;-79
2021/09/30 12:40:47;;;;;;;;;8.25;8.25;;;;;21.59;25.05;102666.44;5112241;28;8844;-78
2021/09/30 12:43:44;;;;;;;;;27.00;25.25;;;;;22.33;25.51;102663.19;5091540;28;8824;-79
2021/09/30 12:46:45;;;;;;;;;7.50;7.50;;;;;22.05;24.46;102660.41;5091898;28;8844;-78
2021/09/30 12:49:56;;;;;;;;;9.25;8.50;;;;;21.89;23.57;102661.22;5091559;28;8843;-79
2021/09/30 12:53:01;;;;;;;;;9.50;8.50;;;;;22.18;24.60;102662.84;5091373;28;8951;-79
2021/09/30 12:56:08;;;;;;;;;12.00;12.00;;;;;21.74;24.01;102652.75;5091973;28;8815;-79
2021/09/30 12:59:15;;;;;;;;;9.00;9.00;;;;;21.70;24.01;102660.25;5091820;28;8828;-78
2021/09/30 13:02:11;;;;;;;;;9.75;9.75;;;;;21.71;24.61;102661.94;5107857;28;8924;-78
2021/09/30 13:05:07;;;;;;;;;7.00;7.00;;;;;21.08;25.44;102656.84;5092017;28;8868;-78
2021/09/30 13:08:04;;;;;;;;;9.25;8.50;;;;;21.20;25.64;102651.19;5106418;28;8955;-79
2021/09/30 13:11:18;;;;;;;;;6.75;6.75;;;;;21.12;25.39;102651.34;5099182;28;8860;-79
2021/09/30 13:14:36;;;;;;;;;20.75;16.25;;;;;21.42;25.07;102649.84;5090939;28;8856;-79
2021/09/30 13:17:31;;;;;;;;;12.75;12.75;;;;;20.95;25.25;102652.44;5093641;28;8837;-78
2021/09/30 13:20:27;;;;;;;;;10.25;10.25;;;;;21.12;25.08;102649.34;5082757;28;8839;-78
2021/09/30 13:23:22;;;;;;;;;22.25;21.25;;;;;21.13;26.17;102645.34;5090947;28;8975;-77
2021/09/30 13:26:18;;;;;;;;;10.75;10.75;;;;;20.39;25.77;102650.22;5115751;28;8845;-77
2021/09/30 13:29:15;;;;;;;;;11.00;11.00;;;;;20.47;25.89;102642.84;5114767;28;8915;-78
2021/09/30 13:32:12;;;;;;;;;20.75;20.75;;;;;20.59;26.32;102637.25;5115031;28;8851;-79
2021/09/30 13:35:09;;;;;;;;;16.25;16.25;;;;;20.87;25.88;102640.16;5106437;28;8917;-79
2021/09/30 13:38:05;;;;;;;;;11.50;11.50;;;;;20.81;26.47;102644.38;5115349;28;8827;-79
2021/09/30 13:41:02;;;;;;;;;18.00;18.00;;;;;21.00;27.00;102640.91;5106119;28;8854;-79
2021/09/30 13:43:57;;;;;;;;;14.50;13.00;;;;;20.74;26.24;102636.53;5094712;28;8874;-77
2021/09/30 13:46:53;;;;;;;;;17.00;17.00;;;;;20.61;25.77;102636.88;5094782;28;8858;-78
2021/09/30 13:49:49;;;;;;;;;20.00;18.50;;;;;20.41;25.80;102647.88;5093205;28;8889;-79
2021/09/30 13:52:47;;;;;;;;;22.00;18.50;;;;;20.05;26.04;102640.25;5093406;28;8843;-78
2021/09/30 13:55:43;;;;;;;;;11.25;11.25;;;;;20.07;25.97;102642.69;5094686;28;8855;-77
2021/09/30 13:58:38;;;;;;;;;15.75;15.75;;;;;20.45;26.37;102634.78;5111661;28;8870;-78
2021/09/30 14:01:34;;;;;;;;;11.75;11.75;;;;;20.24;26.36;102634.03;5115042;28;8885;-78
2021/09/30 14:04:30;;;;;;;;;12.00;12.00;;;;;20.24;26.57;102636.84;5111321;28;8904;-77
2021/09/30 14:07:25;;;;;;;;;25.25;25.25;;;;;19.77;26.46;102633.63;5114572;28;8863;-78
2021/09/30 14:10:24;;;;;;;;;13.50;13.50;;;;;19.51;26.87;102626.28;5105448;28;8838;-78
2021/09/30 14:13:19;;;;;;;;;10.25;10.25;;;;;19.49;27.20;102634.22;5103618;28;8845;-78
2021/09/30 14:16:15;;;;;;;;;12.75;12.75;;;;;19.14;27.36;102636.50;5114511;28;8905;-78
2021/09/30 14:19:11;;;;;;;;;13.33;12.33;;;;;19.04;27.32;102629.34;5114358;28;8830;-79
2021/09/30 14:22:06;;;;;;;;;10.00;9.50;;;;;18.47;28.00;102627.03;5101677;28;8955;-79
2021/09/30 14:25:04;;;;;;;;;12.25;12.25;;;;;18.36;28.75;102619.38;5094193;28;8863;-80
2021/09/30 14:28:00;;;;;;;;;25.00;25.00;;;;;18.34;28.62;102616.91;5111217;28;8902;-77
2021/09/30 14:30:56;;;;;;;;;24.67;24.00;;;;;17.90;29.71;102630.25;5112527;28;8967;-76
2021/09/30 14:33:52;;;;;;;;;25.75;25.00;;;;;17.80;29.67;102630.63;5099656;28;9100;-78
2021/09/30 14:36:49;;;;;;;;;2.25;2.25;;;;;17.60;30.01;102622.88;5100367;28;8814;-78
2021/09/30 14:39:44;;;;;;;;;37.67;34.00;;;;;17.47;30.30;102630.31;5080026;28;8927;-79
2021/09/30 14:42:41;;;;;;;;;34.50;33.25;;;;;17.41;30.42;102628.84;5099761;28;9455;-77
2021/09/30 14:45:36;;;;;;;;;25.33;25.33;;;;;17.45;30.77;102643.81;5113248;28;9603;-78
2021/09/30 14:48:37;;;;;;;;;23.67;23.00;;;;;17.24;31.62;102641.66;5110204;28;10214;-78
2021/09/30 14:51:33;;;;;;;;;23.00;20.67;;;;;17.01;31.68;102631.78;5097075;28;9453;-79
2021/09/30 14:54:28;;;;;;;;;36.33;33.67;;;;;16.97;31.50;102636.41;5099848;28;9180;-78
2021/09/30 14:57:24;;;;;;;;;35.75;32.25;;;;;16.81;31.80;102632.47;5113813;28;9476;-79
2021/09/30 15:00:20;;;;;;;;;17.67;17.33;;;;;16.88;31.75;102633.63;5091766;28;9760;-78
2021/09/30 15:03:15;;;;;;;;;12.67;12.67;;;;;16.59;32.54;102633.38;5079371;28;9356;-78
2021/09/30 15:06:12;;;;;;;;;9.00;9.00;;;;;16.59;32.32;102634.19;5104279;28;9160;-78
2021/09/30 15:09:07;;;;;;;;;15.00;15.00;;;;;16.45;32.39;102636.28;5113343;28;9079;-77
2021/09/30 15:12:04;;;;;;;;;16.00;16.00;;;;;16.40;32.87;102633.63;5086965;28;9510;-79
2021/09/30 15:15:00;;;;;;;;;17.00;17.00;;;;;16.32;32.98;102638.03;5100617;28;9354;-78
2021/09/30 15:18:02;;;;;;;;;9.00;9.00;;;;;16.09;32.96;102633.66;5102022;28;9437;-78
2021/09/30 15:24:17;;;;;;;;;8.67;8.67;;;;;16.08;34.16;102641.22;5107776;28;9378;-78
2021/09/30 15:27:15;;;;;;;;;13.00;13.00;;;;;15.89;34.10;102645.41;5112319;28;9377;-78
2021/09/30 15:30:11;;;;;;;;;8.33;8.33;;;;;15.82;34.12;102645.84;5112392;28;9136;-77
2021/09/30 15:33:10;;;;;;;;;11.75;11.75;;;;;15.72;33.89;102646.94;5112723;28;9521;-76
2021/09/30 15:36:08;;;;;;;;;9.00;9.00;;;;;15.60;34.06;102652.25;5098620;28;9506;-76
2021/09/30 15:39:06;;;;;;;;;7.75;7.75;;;;;15.53;34.30;102646.28;5099401;28;9456;-78
2021/09/30 15:42:02;;;;;;;;;11.25;11.25;;;;;15.42;34.20;102654.09;5097900;28;9449;-78
2021/09/30 15:44:58;;;;;;;;;9.50;9.50;;;;;15.35;34.69;102655.66;5112826;28;9615;-77
2021/09/30 15:47:54;;;;;;;;;10.00;10.00;;;;;15.19;34.90;102664.41;5106014;28;9586;-78
2021/09/30 15:50:49;;;;;;;;;10.50;10.50;;;;;15.21;34.81;102664.06;5110041;28;9664;-78
2021/09/30 15:53:45;;;;;;;;;12.25;12.00;;;;;15.15;35.00;102662.53;5099024;28;9591;-78
2021/09/30 15:56:41;;;;;;;;;10.75;10.75;;;;;15.07;35.41;102660.50;5112020;28;9568;-76
2021/09/30 15:59:37;;;;;;;;;12.25;11.50;;;;;15.02;35.52;102661.44;5098426;28;9601;-75
2021/09/30 16:02:32;;;;;;;;;13.75;12.50;;;;;14.98;36.02;102669.59;5112729;28;9752;-76
2021/09/30 16:05:28;;;;;;;;;10.50;10.50;;;;;14.92;36.01;102665.28;5098774;28;9653;-75
2021/09/30 16:08:24;;;;;;;;;4.75;4.75;;;;;14.99;36.35;102664.84;5094530;28;9608;-76
2021/09/30 16:11:19;;;;;;;;;11.75;11.75;;;;;14.84;35.98;102668.78;5101388;28;9896;-77
2021/09/30 16:14:15;;;;;;;;;11.50;11.50;;;;;14.71;36.46;102675.19;5092779;28;10575;-77
2021/09/30 16:17:10;;;;;;;;;11.25;11.25;;;;;14.79;36.16;102673.66;5082142;28;9743;-75
2021/09/30 16:20:08;;;;;;;;;13.25;12.00;;;;;14.58;36.20;102676.88;5098824;27;9886;-78
2021/09/30 16:23:03;;;;;;;;;11.00;11.00;;;;;14.56;35.82;102681.09;5116270;28;10503;-77
2021/09/30 16:25:59;;;;;;;;;10.25;10.25;;;;;14.52;35.63;102682.88;5131997;27;9834;-74